EDT,Max TemperatureF,Mean TemperatureF,Min TemperatureF,Max Dew PointF,MeanDew PointF,Min DewpointF,Max Humidity, Mean Humidity, Min Humidity, Max Sea Level PressureIn, Mean Sea Level PressureIn, Min Sea Level PressureIn, Max VisibilityMiles, Mean VisibilityMiles, Min VisibilityMiles, Max Wind SpeedMPH, Mean Wind SpeedMPH, Max Gust SpeedMPH,PrecipitationIn, CloudCover, Events, WindDirDegrees
2011-10-1,62,53,44,45,38,32,81,53,32,30.02,29.93,29.86,10,9,7,15,6,22,0.00,2,,307
2011-10-2,64,52,39,41,37,30,100,62,28,30.06,30.03,29.99,10,8,5,13,4,17,0.00,0,,310
2011-10-3,69,54,39,45,38,34,93,57,31,30.17,30.12,30.08,10,9,5,9,4,,0.00,0,,266
2011-10-4,73,58,44,52,46,45,100,66,36,30.27,30.22,30.18,10,9,7,12,2,16,0.00,0,,338
2011-10-5,77,64,51,52,51,48,100,72,39,30.30,30.25,30.19,10,8,5,7,2,,0.00,0,,31
2011-10-6,77,64,51,55,52,48,100,71,36,30.35,30.29,30.24,10,8,5,13,4,16,0.00,0,,45
2011-10-7,73,62,50,54,49,45,100,69,36,30.43,30.38,30.34,10,8,7,14,6,21,0.00,0,Thunderstorm,43
2011-10-8,73,62,50,52,47,43,88,62,33,30.49,30.43,30.37,10,9,5,14,7,20,0.00,0,,40
2011-10-9,77,66,55,57,53,48,88,67,47,30.40,30.34,30.25,10,10,7,17,10,25,0.00,4,,44
2011-10-10,69,64,60,61,56,52,94,73,60,30.26,30.15,30.07,10,9,5,15,12,22,0.00,7,Rain,37
2011-10-11,64,60,57,61,59,55,100,95,73,30.07,29.99,29.92,10,7,3,17,11,28,0.56,8,Rain-Thunderstorm,33
2011-10-12,68,64,59,66,62,59,100,98,88,29.92,29.84,29.79,10,6,2,8,4,,0.33,8,Rain-Thunderstorm,359
2011-10-13,73,68,64,64,63,59,100,88,61,29.79,29.70,29.62,10,6,0,13,2,21,0.02,7,Fog-Rain-Thunderstorm,198
2011-10-14,73,63,53,59,50,39,100,69,29,29.88,29.75,29.64,10,8,3,14,5,23,0.01,2,,242
2011-10-15,77,64,51,48,45,41,82,56,28,30.02,29.96,29.90,10,8,5,10,4,,0.00,0,,251
2011-10-16,80,61,42,50,42,37,93,53,26,30.16,30.09,30.01,10,9,7,9,3,,0.00,0,,213
2011-10-17,84,67,50,54,50,46,94,56,30,30.02,29.94,29.87,10,9,7,9,4,,0.00,0,,213
2011-10-18,78,66,53,64,57,52,100,78,47,29.89,29.83,29.72,10,9,2,15,4,18,0.46,2,Rain,192
2011-10-19,68,57,46,68,56,41,100,92,72,29.63,29.48,29.33,10,7,2,15,8,24,0.16,7,Rain-Thunderstorm,128
2011-10-20,59,52,44,41,39,37,87,68,45,29.93,29.76,29.60,10,9,7,14,8,24,0.00,1,,229
2011-10-21,62,50,37,45,40,37,100,77,42,30.12,30.06,29.99,10,9,5,6,2,,0.00,0,,239
2011-10-22,64,52,41,46,42,39,100,73,40,30.18,30.12,30.08,10,10,7,13,3,17,0.00,0,,17
2011-10-23,66,52,39,48,44,39,100,78,43,30.17,30.12,30.07,10,9,5,5,0,,0.00,0,Thunderstorm,59
2011-10-24,71,58,44,52,47,45,100,75,40,30.15,30.11,30.07,10,9,5,6,1,,0.00,1,Thunderstorm,258
2011-10-25,73,58,44,50,46,41,100,65,33,30.27,30.20,30.15,10,10,7,9,5,,0.00,0,,37
2011-10-26,75,62,48,54,48,43,100,67,34,30.18,30.08,29.96,10,8,5,12,5,16,0.00,0,,214
2011-10-27,77,65,53,54,51,46,82,65,39,29.96,29.88,29.82,10,9,5,15,5,22,0.00,0,,221
2011-10-28,60,53,46,54,46,37,88,69,58,30.07,30.01,29.91,10,8,5,16,7,23,0.00,7,Rain,41
2011-10-29,57,49,41,43,38,30,100,77,38,30.10,30.00,29.94,10,9,4,17,8,23,0.25,5,Rain,347
2011-10-30,59,46,33,36,33,30,100,67,36,30.32,30.26,30.18,10,8,2,8,3,,0.00,0,,20
2011-10-31,57,47,37,43,37,34,93,73,47,30.31,30.25,30.18,10,10,10,7,1,,0.00,3,Thunderstorm,38